createdAt,value
2019-05-10T00:00:34.972Z,67.20
2019-05-10T00:03:21.967Z,67.60
2019-05-10T00:06:08.873Z,67.80
2019-05-10T00:08:45.634Z,67.70
2019-05-10T00:11:29.339Z,67.80
2019-05-10T00:14:12.340Z,67.80
2019-05-10T00:16:41.120Z,67.90
2019-05-10T00:19:10.132Z,68.80
2019-05-10T00:21:39.269Z,68.30
2019-05-10T00:24:08.102Z,68.50
2019-05-10T00:26:36.877Z,68.70
2019-05-10T00:29:05.881Z,68.90
2019-05-10T00:31:34.647Z,69.30
2019-05-10T00:34:03.410Z,69.30
2019-05-10T00:36:32.482Z,69.40
2019-05-10T00:39:01.611Z,69.40
2019-05-10T00:41:30.771Z,69.70
2019-05-10T00:43:59.867Z,69.90
2019-05-10T00:46:28.640Z,69.80
2019-05-10T00:48:57.408Z,70.00
2019-05-10T00:51:26.162Z,70.20
2019-05-10T00:53:54.917Z,70.10
2019-05-10T00:56:24.110Z,70.10
2019-05-10T00:58:52.950Z,70.40
2019-05-10T01:01:21.886Z,70.20
2019-05-10T01:03:50.756Z,70.10
2019-05-10T01:06:19.777Z,70.40
2019-05-10T01:08:48.527Z,70.90
2019-05-10T01:11:17.291Z,70.80
2019-05-10T01:13:46.044Z,70.70
2019-05-10T01:16:14.839Z,70.70
2019-05-10T01:18:43.589Z,70.70
2019-05-10T01:21:12.660Z,70.70
2019-05-10T01:23:41.487Z,70.90
2019-05-10T01:26:10.275Z,70.80
2019-05-10T01:28:39.111Z,71.20
2019-05-10T01:31:08.989Z,71.80
2019-05-10T01:33:37.835Z,72.20
2019-05-10T01:36:06.603Z,72.50
2019-05-10T01:38:35.658Z,72.40
2019-05-10T01:41:04.436Z,72.40
2019-05-10T01:43:33.548Z,72.50
2019-05-10T01:46:02.338Z,72.70
2019-05-10T01:48:31.342Z,72.60
2019-05-10T01:51:00.633Z,72.40
2019-05-10T01:53:29.721Z,72.30
2019-05-10T01:55:58.823Z,72.30
2019-05-10T01:58:27.586Z,72.40
2019-05-10T02:00:56.367Z,72.50
2019-05-10T02:03:25.202Z,72.70
2019-05-10T02:05:53.979Z,72.70
2019-05-10T02:08:22.731Z,72.50
2019-05-10T02:10:51.852Z,72.60
2019-05-10T02:13:20.615Z,72.70
2019-05-10T02:15:49.737Z,72.70
2019-05-10T02:18:18.587Z,72.70
2019-05-10T02:20:47.919Z,72.70
2019-05-10T02:23:16.700Z,72.70
2019-05-10T02:25:45.477Z,72.90
2019-05-10T02:28:14.241Z,73.00
2019-05-10T02:30:43.093Z,73.00
2019-05-10T02:33:11.864Z,73.00
2019-05-10T02:35:40.963Z,73.00
2019-05-10T02:38:10.064Z,73.10
2019-05-10T02:40:38.831Z,72.90
2019-05-10T02:43:07.624Z,72.90
2019-05-10T02:45:36.571Z,73.00
2019-05-10T02:48:05.947Z,73.20
2019-05-10T02:50:34.790Z,73.20
2019-05-10T02:53:03.818Z,73.30
2019-05-10T02:55:33.886Z,73.00
2019-05-10T02:58:02.997Z,72.60
2019-05-10T03:00:35.085Z,72.50
2019-05-10T03:03:06.493Z,72.90
2019-05-10T03:05:36.943Z,73.10
2019-05-10T03:08:05.870Z,72.20
2019-05-10T03:10:37.004Z,72.00
2019-05-10T03:13:06.097Z,72.20
2019-05-10T03:15:38.492Z,72.30
2019-05-10T03:18:07.877Z,72.20
2019-05-10T03:20:38.891Z,72.20
2019-05-10T03:23:10.571Z,71.90
2019-05-10T03:25:39.765Z,72.00
2019-05-10T03:28:08.711Z,71.90
2019-05-10T03:30:37.615Z,71.40
2019-05-10T03:33:06.396Z,71.40
2019-05-10T03:35:35.161Z,71.10
2019-05-10T03:38:03.941Z,71.00
2019-05-10T03:40:32.729Z,71.00
2019-05-10T03:43:01.588Z,70.80
2019-05-10T03:45:30.689Z,70.80
2019-05-10T03:47:59.776Z,71.30
2019-05-10T03:50:28.641Z,71.90
2019-05-10T03:52:57.869Z,72.50
2019-05-10T03:55:26.692Z,72.60
2019-05-10T03:57:55.562Z,73.00
2019-05-10T04:00:24.584Z,73.40
2019-05-10T04:02:53.453Z,73.60
2019-05-10T04:05:22.313Z,73.80
2019-05-10T04:07:51.418Z,74.80
2019-05-10T04:10:21.084Z,75.50
2019-05-10T04:12:50.018Z,75.80
2019-05-10T04:15:19.216Z,75.90
2019-05-10T04:17:50.351Z,76.50
2019-05-10T04:20:18.944Z,76.80
2019-05-10T04:22:47.726Z,76.90
2019-05-10T04:25:16.983Z,77.40
2019-05-10T04:27:45.850Z,77.20
2019-05-10T04:30:15.224Z,77.20
2019-05-10T04:32:44.095Z,76.80
2019-05-10T04:35:13.409Z,76.90
2019-05-10T04:37:42.510Z,76.80
2019-05-10T04:40:11.536Z,76.80
2019-05-10T04:42:41.003Z,77.00
2019-05-10T04:45:10.179Z,76.70
2019-05-10T04:47:39.342Z,76.80
2019-05-10T04:50:08.485Z,76.70
2019-05-10T04:52:37.656Z,76.30
2019-05-10T04:55:06.889Z,76.30
2019-05-10T04:57:49.886Z,76.30
2019-05-10T05:00:08.476Z,75.80
2019-05-10T05:02:37.401Z,75.70
2019-05-10T05:05:07.639Z,75.50
2019-05-10T05:07:36.460Z,75.40
2019-05-10T05:10:06.203Z,75.60
2019-05-10T05:12:34.974Z,75.50
2019-05-10T05:15:04.092Z,75.00
2019-05-10T05:17:32.866Z,74.30
2019-05-10T05:20:02.268Z,73.80
2019-05-10T05:22:31.469Z,73.50
2019-05-10T05:25:01.532Z,73.10
2019-05-10T05:27:31.036Z,73.30
2019-05-10T05:29:59.811Z,73.00
2019-05-10T05:32:28.584Z,72.80
2019-05-10T05:34:57.745Z,73.30
2019-05-10T05:37:26.796Z,72.70
2019-05-10T05:39:55.927Z,72.50
2019-05-10T05:42:27.989Z,72.00
2019-05-10T05:44:55.274Z,72.00
2019-05-10T05:47:24.056Z,71.80
2019-05-10T05:49:53.092Z,72.00
2019-05-10T05:52:21.850Z,71.60
2019-05-10T05:54:52.857Z,71.40
2019-05-10T05:57:22.258Z,71.30
2019-05-10T05:59:57.340Z,71.10
2019-05-10T06:02:23.018Z,70.90
2019-05-10T06:04:51.911Z,71.20
2019-05-10T06:07:20.693Z,70.60
2019-05-10T06:09:49.573Z,71.60
2019-05-10T06:12:18.689Z,70.40
2019-05-10T06:14:49.986Z,69.70
2019-05-10T06:17:23.556Z,70.00
2019-05-10T06:19:49.121Z,69.60
2019-05-10T06:22:17.884Z,69.40
2019-05-10T06:24:52.293Z,68.50
2019-05-10T06:27:17.243Z,68.70
2019-05-10T06:29:46.031Z,68.60
2019-05-10T06:32:14.836Z,67.90
2019-05-10T06:34:43.626Z,67.60
2019-05-10T06:37:12.813Z,68.00
2019-05-10T06:39:41.587Z,67.30
2019-05-10T06:42:10.375Z,67.00
2019-05-10T06:44:39.476Z,67.30
2019-05-10T06:47:11.174Z,67.50
2019-05-10T06:49:41.651Z,67.50
2019-05-10T06:52:09.901Z,67.30
2019-05-10T06:54:38.667Z,66.70
2019-05-10T06:57:11.157Z,67.30
2019-05-10T06:59:38.249Z,67.30
2019-05-10T07:02:07.332Z,67.90
2019-05-10T07:04:40.778Z,67.90
2019-05-10T07:07:09.704Z,67.60
2019-05-10T07:10:01.475Z,67.20
2019-05-10T07:12:09.438Z,67.30
2019-05-10T07:14:45.526Z,66.80
2019-05-10T07:17:09.532Z,66.50
2019-05-10T07:19:42.037Z,66.70
2019-05-10T07:22:09.115Z,66.80
2019-05-10T07:24:37.912Z,66.70
2019-05-10T07:27:07.011Z,65.80
2019-05-10T07:29:42.727Z,65.20
2019-05-10T07:32:06.768Z,64.60
2019-05-10T07:34:35.549Z,65.00
2019-05-10T07:37:04.505Z,64.80
2019-05-10T07:39:33.363Z,65.20
2019-05-10T07:42:06.531Z,62.90
2019-05-10T07:44:32.951Z,62.60
2019-05-10T07:47:01.749Z,62.30
2019-05-10T07:49:32.502Z,63.10
2019-05-10T07:52:02.782Z,62.50
2019-05-10T07:54:37.409Z,61.90
2019-05-10T07:57:02.671Z,61.90
2019-05-10T07:59:42.010Z,61.20
2019-05-10T08:02:05.765Z,61.70
2019-05-10T08:04:33.678Z,62.70
2019-05-10T08:07:02.597Z,61.20
2019-05-10T08:09:31.814Z,60.60
2019-05-10T08:12:05.054Z,61.80
2019-05-10T08:14:31.523Z,60.90
2019-05-10T08:17:05.878Z,61.80
2019-05-10T08:19:32.834Z,61.90
2019-05-10T08:22:04.319Z,62.30
2019-05-10T08:24:35.472Z,62.60
2019-05-10T08:27:07.938Z,63.20
2019-05-10T08:29:33.459Z,63.00
2019-05-10T08:32:02.992Z,64.40
2019-05-10T08:34:35.574Z,65.70
2019-05-10T08:37:02.583Z,67.10
2019-05-10T08:39:35.280Z,67.70
2019-05-10T08:42:19.521Z,69.70
2019-05-10T08:44:32.851Z,70.00
2019-05-10T08:47:02.235Z,69.80
2019-05-10T08:49:42.424Z,70.20
2019-05-10T08:52:02.931Z,70.80
2019-05-10T08:54:32.829Z,70.00
2019-05-10T08:57:05.332Z,70.30
2019-05-10T08:59:33.979Z,69.00
2019-05-10T09:02:02.980Z,68.90
2019-05-10T09:04:42.214Z,69.90
2019-05-10T09:07:02.879Z,69.10
2019-05-10T09:09:33.777Z,68.80
2019-05-10T09:12:07.557Z,69.40
2019-05-10T09:14:33.459Z,69.80
2019-05-10T09:17:04.373Z,67.70
2019-05-10T09:19:40.520Z,67.70
2019-05-10T09:22:04.015Z,67.80
2019-05-10T09:24:34.969Z,68.30
2019-05-10T09:27:03.684Z,68.90
2019-05-10T09:29:37.282Z,69.30
2019-05-10T09:32:06.235Z,69.00
2019-05-10T09:34:33.987Z,69.30
2019-05-10T09:37:08.125Z,70.00
2019-05-10T09:39:34.313Z,70.30
2019-05-10T09:42:07.952Z,69.80
2019-05-10T09:44:33.691Z,69.70
2019-05-10T09:47:04.016Z,68.40
2019-05-10T09:49:33.560Z,68.70
2019-05-10T09:52:04.531Z,68.70
2019-05-10T09:54:33.651Z,69.30
2019-05-10T09:57:02.993Z,69.10
2019-05-10T09:59:32.096Z,70.70
2019-05-10T10:02:04.987Z,69.80
2019-05-10T10:04:32.024Z,69.00
2019-05-10T10:07:00.794Z,67.50
2019-05-10T10:09:34.860Z,67.50
2019-05-10T10:12:03.067Z,66.80
2019-05-10T10:14:38.031Z,65.60
2019-05-10T10:17:03.229Z,66.40
2019-05-10T10:19:32.240Z,65.90
2019-05-10T10:22:05.445Z,66.80
2019-05-10T10:24:31.828Z,66.00
2019-05-10T10:27:00.857Z,64.80
2019-05-10T10:29:34.052Z,65.20
2019-05-10T10:32:00.489Z,64.50
2019-05-10T10:34:32.684Z,64.30
2019-05-10T10:37:00.096Z,64.50
2019-05-10T10:39:29.305Z,64.40
2019-05-10T10:42:02.550Z,64.90
2019-05-10T10:44:28.917Z,64.90
2019-05-10T10:46:58.267Z,64.30
2019-05-10T10:49:30.800Z,64.80
2019-05-10T10:51:57.943Z,65.10
2019-05-10T10:54:31.023Z,64.70
2019-05-10T10:56:59.542Z,63.30
2019-05-10T10:59:27.997Z,63.40
2019-05-10T11:02:25.303Z,59.50
2019-05-10T11:04:27.621Z,60.90
2019-05-10T11:07:09.192Z,58.20
2019-05-10T11:09:27.239Z,58.00
2019-05-10T11:11:56.261Z,58.50
2019-05-10T11:14:25.072Z,58.70
2019-05-10T11:16:57.056Z,59.10
2019-05-10T11:19:24.707Z,59.30
2019-05-10T11:21:53.465Z,58.50
2019-05-10T11:24:22.871Z,58.20
2019-05-10T11:26:52.424Z,58.20
2019-05-10T11:29:26.284Z,58.50
2019-05-10T11:32:11.048Z,58.80
2019-05-10T11:34:22.490Z,58.90
2019-05-10T11:36:51.604Z,59.50
2019-05-10T11:39:25.974Z,60.10
2019-05-10T11:41:52.787Z,59.70
2019-05-10T11:44:23.940Z,59.20
2019-05-10T11:46:52.544Z,59.70
2019-05-10T11:49:21.639Z,59.90
2019-05-10T11:51:54.835Z,58.90
2019-05-10T11:54:21.640Z,60.10
2019-05-10T11:56:52.250Z,59.80
2019-05-10T11:59:21.897Z,59.10
2019-05-10T12:01:58.039Z,59.00
2019-05-10T12:04:28.990Z,58.70
2019-05-10T12:06:51.864Z,58.10
2019-05-10T12:09:24.191Z,58.50
2019-05-10T12:11:56.097Z,57.90
2019-05-10T12:14:22.102Z,58.50
2019-05-10T12:16:54.550Z,58.50
2019-05-10T12:19:22.049Z,57.90
2019-05-10T12:21:55.588Z,57.40
2019-05-10T12:24:38.995Z,56.20
2019-05-10T12:27:18.712Z,56.30
2019-05-10T12:29:22.609Z,55.00
2019-05-10T12:31:55.051Z,56.20
2019-05-10T12:34:22.205Z,56.20
2019-05-10T12:36:51.914Z,56.70
2019-05-10T12:39:21.523Z,56.00
2019-05-10T12:41:53.106Z,55.20
2019-05-10T12:44:20.937Z,53.30
2019-05-10T12:46:50.938Z,53.70
2019-05-10T12:49:21.443Z,54.70
2019-05-10T12:51:51.396Z,54.00
2019-05-10T12:54:23.703Z,53.50
2019-05-10T12:56:51.494Z,53.50
2019-05-10T12:59:20.574Z,54.30
2019-05-10T13:01:49.351Z,55.60
2019-05-10T13:04:18.111Z,59.80
2019-05-10T13:06:47.279Z,63.60
2019-05-10T13:09:16.035Z,65.10
2019-05-10T13:11:44.809Z,66.10
2019-05-10T13:14:13.929Z,64.10
2019-05-10T13:16:43.103Z,65.20
2019-05-10T13:19:14.189Z,64.60
2019-05-10T13:21:42.351Z,65.80
2019-05-10T13:24:11.436Z,62.30
2019-05-10T13:26:40.201Z,61.30
2019-05-10T13:29:10.565Z,59.20
2019-05-10T13:31:42.987Z,58.80
2019-05-10T13:34:10.229Z,57.70
2019-05-10T13:36:39.300Z,57.30
2019-05-10T13:39:08.646Z,57.40
2019-05-10T13:41:37.761Z,57.30
2019-05-10T13:44:06.620Z,57.40
2019-05-10T13:46:35.455Z,57.60
2019-05-10T13:49:04.545Z,56.00
2019-05-10T13:51:33.723Z,54.70
2019-05-10T13:54:05.171Z,55.10
2019-05-10T13:56:33.315Z,56.70
2019-05-10T13:59:13.922Z,56.60
2019-05-10T14:01:32.853Z,56.90
2019-05-10T14:04:03.471Z,55.50
2019-05-10T14:06:32.394Z,55.80
2019-05-10T14:09:01.490Z,55.70
2019-05-10T14:11:34.271Z,54.50
2019-05-10T14:14:01.013Z,54.80
2019-05-10T14:16:30.119Z,54.10
2019-05-10T14:18:59.331Z,53.20
2019-05-10T14:21:28.401Z,54.50
2019-05-10T14:23:57.228Z,53.10
2019-05-10T14:26:26.127Z,53.50
2019-05-10T14:28:54.891Z,53.50
2019-05-10T14:31:23.967Z,52.30
2019-05-10T14:36:23.791Z,52.20
2019-05-10T14:38:56.028Z,50.50
2019-05-10T14:41:23.118Z,51.90
2019-05-10T14:43:52.203Z,50.80
2019-05-10T14:46:21.295Z,49.70
2019-05-10T14:48:50.129Z,49.40
2019-05-10T14:51:18.924Z,49.50
2019-05-10T14:53:47.703Z,51.50
2019-05-10T14:56:16.911Z,51.80
2019-05-10T14:58:46.275Z,52.30
2019-05-10T15:01:15.083Z,52.20
2019-05-10T15:03:45.880Z,53.00
2019-05-10T15:06:15.034Z,53.10
2019-05-10T15:08:43.799Z,53.50
2019-05-10T15:11:13.186Z,52.30
2019-05-10T15:13:41.936Z,52.60
2019-05-10T15:16:13.173Z,53.00
2019-05-10T15:18:41.997Z,52.70
2019-05-10T15:21:10.919Z,53.30
2019-05-10T15:23:40.192Z,53.40
2019-05-10T15:26:11.812Z,53.90
2019-05-10T15:28:42.074Z,53.40
2019-05-10T15:31:10.587Z,53.40
2019-05-10T15:33:39.427Z,54.00
2019-05-10T15:36:08.363Z,53.80
2019-05-10T15:38:40.458Z,54.20
2019-05-10T15:41:07.930Z,54.40
2019-05-10T15:43:36.708Z,54.80
2019-05-10T15:46:06.045Z,54.30
2019-05-10T15:48:36.625Z,54.50
2019-05-10T15:51:05.706Z,54.60
2019-05-10T15:53:35.215Z,54.30
2019-05-10T15:56:05.548Z,54.40
2019-05-10T15:58:36.144Z,54.30
2019-05-10T16:01:05.840Z,54.10
2019-05-10T16:03:34.942Z,54.10
2019-05-10T16:06:04.227Z,54.10
2019-05-10T16:08:33.029Z,54.30
2019-05-10T16:11:01.881Z,54.10
2019-05-10T16:13:30.972Z,54.10
2019-05-10T16:15:59.733Z,53.80
2019-05-10T16:18:33.285Z,54.60
2019-05-10T16:20:59.524Z,53.90
2019-05-10T16:23:28.304Z,53.90
2019-05-10T16:25:57.403Z,53.50
2019-05-10T16:28:26.809Z,52.90
2019-05-10T16:30:55.581Z,53.30
2019-05-10T16:33:24.363Z,53.10
2019-05-10T16:35:53.426Z,53.60
2019-05-10T16:38:22.228Z,53.10
2019-05-10T16:40:57.992Z,53.30
2019-05-10T16:43:24.664Z,53.00
2019-05-10T16:45:52.420Z,53.50
2019-05-10T16:48:21.631Z,53.60
2019-05-10T16:50:50.696Z,53.20
2019-05-10T16:53:19.466Z,53.00
2019-05-10T16:55:48.275Z,53.40
2019-05-10T16:58:18.008Z,53.50
2019-05-10T17:00:48.104Z,53.60
2019-05-10T17:03:18.432Z,53.30
2019-05-10T17:05:53.503Z,53.00
2019-05-10T17:08:18.425Z,53.70
2019-05-10T17:10:47.579Z,53.50
2019-05-10T17:13:16.352Z,53.60
2019-05-10T17:16:04.374Z,53.90
2019-05-10T17:18:33.180Z,54.00
2019-05-10T17:21:01.961Z,54.00
2019-05-10T17:23:30.750Z,54.50
2019-05-10T17:26:00.149Z,54.80
2019-05-10T17:28:29.456Z,54.60
2019-05-10T17:31:06.995Z,54.60
2019-05-10T17:33:30.295Z,54.60
2019-05-10T17:36:08.023Z,54.70
2019-05-10T17:38:31.700Z,55.30
2019-05-10T17:41:00.398Z,54.30
2019-05-10T17:43:29.200Z,53.80
2019-05-10T17:45:57.992Z,54.20
2019-05-10T17:48:26.837Z,54.20
2019-05-10T17:50:55.636Z,54.70
2019-05-10T17:53:24.809Z,54.80
2019-05-10T17:55:56.082Z,55.10
2019-05-10T17:58:27.854Z,54.70
2019-05-10T18:00:54.728Z,54.50
2019-05-10T18:03:23.845Z,54.50
2019-05-10T18:05:53.478Z,54.50
2019-05-10T18:08:22.612Z,57.00
2019-05-10T18:10:57.176Z,58.60
2019-05-10T18:13:22.200Z,60.10
2019-05-10T18:15:51.242Z,59.80
2019-05-10T18:18:20.016Z,60.20
2019-05-10T18:20:49.093Z,60.30
2019-05-10T18:23:21.443Z,60.30
2019-05-10T18:25:52.547Z,60.40
2019-05-10T18:28:21.447Z,60.40
2019-05-10T18:30:50.362Z,60.50
2019-05-10T18:33:19.216Z,60.50
2019-05-10T18:35:53.017Z,61.10
2019-05-10T18:38:19.272Z,61.30
2019-05-10T18:40:48.331Z,61.40
2019-05-10T18:43:17.121Z,61.90
2019-05-10T18:45:45.886Z,62.90
2019-05-10T18:48:15.371Z,62.60
2019-05-10T18:50:45.453Z,63.10
2019-05-10T18:53:15.405Z,63.20
2019-05-10T18:55:44.192Z,64.50
2019-05-10T18:58:12.964Z,63.40
2019-05-10T19:00:41.800Z,63.40
2019-05-10T19:03:10.594Z,63.40
2019-05-10T19:05:39.975Z,63.80
2019-05-10T19:08:09.127Z,64.00
2019-05-10T19:10:37.906Z,64.10
2019-05-10T19:13:07.150Z,64.40
2019-05-10T19:15:36.828Z,64.80
2019-05-10T19:18:06.028Z,65.50
2019-05-10T19:20:35.435Z,66.30
2019-05-10T19:23:05.534Z,66.30
2019-05-10T19:25:37.598Z,66.90
2019-05-10T19:28:05.656Z,67.60
2019-05-10T19:30:34.520Z,68.10
2019-05-10T19:33:03.273Z,68.60
2019-05-10T19:35:35.800Z,67.90
2019-05-10T19:38:03.215Z,68.50
2019-05-10T19:40:32.260Z,68.40
2019-05-10T19:43:01.100Z,68.50
2019-05-10T19:45:31.210Z,68.90
2019-05-10T19:48:00.140Z,69.10
2019-05-10T19:50:33.190Z,70.00
2019-05-10T19:53:03.963Z,70.10
2019-05-10T19:55:51.478Z,70.40
2019-05-10T19:58:20.124Z,70.90
2019-05-10T20:00:49.267Z,70.60
2019-05-10T20:03:18.116Z,70.50
2019-05-10T20:05:46.928Z,70.50
2019-05-10T20:08:15.700Z,71.30
2019-05-10T20:10:44.879Z,71.60
2019-05-10T20:13:13.727Z,71.20
2019-05-10T20:15:42.526Z,71.00
2019-05-10T20:18:11.964Z,70.10
2019-05-10T20:20:40.801Z,70.20
2019-05-10T20:23:09.562Z,70.40
2019-05-10T20:25:38.333Z,69.30
2019-05-10T20:28:07.105Z,69.80
2019-05-10T20:30:35.892Z,69.90
2019-05-10T20:33:04.671Z,69.90
2019-05-10T20:35:33.916Z,70.30
2019-05-10T20:38:02.816Z,70.50
2019-05-10T20:40:31.747Z,70.00
2019-05-10T20:43:00.869Z,70.00
2019-05-10T20:45:29.667Z,70.30
2019-05-10T20:47:58.751Z,70.70
2019-05-10T20:50:27.668Z,70.80
2019-05-10T20:52:56.736Z,70.90
2019-05-10T20:55:25.937Z,70.80
2019-05-10T20:57:55.037Z,71.20
2019-05-10T21:00:24.364Z,71.40
2019-05-10T21:02:53.276Z,71.30
2019-05-10T21:05:22.035Z,72.10
2019-05-10T21:07:50.894Z,71.60
2019-05-10T21:10:19.660Z,71.60
2019-05-10T21:12:48.437Z,71.80
2019-05-10T21:15:17.344Z,71.60
2019-05-10T21:17:46.464Z,71.30
2019-05-10T21:20:15.305Z,71.30
2019-05-10T21:22:44.076Z,71.10
2019-05-10T21:25:13.203Z,71.40
2019-05-10T21:27:41.974Z,71.40
2019-05-10T21:30:10.745Z,71.20
2019-05-10T21:32:39.528Z,71.10
2019-05-10T21:35:08.431Z,70.70
2019-05-10T21:37:37.224Z,70.30
2019-05-10T21:40:06.288Z,70.00
2019-05-10T21:42:35.370Z,70.30
2019-05-10T21:45:04.325Z,70.40
2019-05-10T21:47:33.372Z,71.10
2019-05-10T21:50:02.143Z,72.40
2019-05-10T21:52:30.931Z,72.00
2019-05-10T21:54:59.696Z,72.70
2019-05-10T21:57:28.913Z,73.30
2019-05-10T21:59:57.679Z,74.00
2019-05-10T22:02:27.133Z,74.40
2019-05-10T22:04:55.904Z,74.40
2019-05-10T22:07:24.679Z,74.30
2019-05-10T22:09:53.775Z,74.20
2019-05-10T22:12:22.587Z,74.00
2019-05-10T22:14:51.608Z,73.30
2019-05-10T22:17:20.395Z,72.30
2019-05-10T22:19:49.159Z,71.80
2019-05-10T22:22:18.231Z,71.90
2019-05-10T22:24:47.240Z,72.00
2019-05-10T22:27:16.033Z,71.80
2019-05-10T22:29:44.805Z,71.60
2019-05-10T22:32:13.910Z,71.30
2019-05-10T22:34:42.739Z,71.30
2019-05-10T22:37:11.510Z,71.50
2019-05-10T22:39:40.272Z,71.80
2019-05-10T22:42:09.069Z,72.10
2019-05-10T22:44:38.165Z,72.20
2019-05-10T22:47:07.238Z,72.20
2019-05-10T22:49:36.088Z,72.20
2019-05-10T22:52:05.224Z,72.10
2019-05-10T22:54:34.273Z,71.70
2019-05-10T22:57:03.058Z,71.40
2019-05-10T22:59:31.900Z,71.60
2019-05-10T23:02:00.693Z,71.60
2019-05-10T23:04:29.774Z,71.50
2019-05-10T23:06:59.189Z,71.40
2019-05-10T23:09:27.963Z,71.80
2019-05-10T23:11:57.067Z,72.00
2019-05-10T23:14:26.107Z,72.20
2019-05-10T23:16:54.884Z,72.70
2019-05-10T23:19:23.660Z,73.20
2019-05-10T23:21:52.712Z,73.60
2019-05-10T23:24:28.105Z,74.00
2019-05-10T23:26:56.866Z,74.20
2019-05-10T23:29:25.656Z,74.30
2019-05-10T23:31:54.428Z,74.50
2019-05-10T23:34:23.593Z,74.80
2019-05-10T23:36:52.355Z,75.10
2019-05-10T23:39:21.633Z,75.00
2019-05-10T23:41:50.420Z,74.60
2019-05-10T23:44:19.201Z,73.70
2019-05-10T23:46:47.978Z,73.20
2019-05-10T23:49:16.763Z,73.00
2019-05-10T23:51:45.535Z,72.80
2019-05-10T23:54:14.636Z,73.40
2019-05-10T23:56:44.030Z,73.80
2019-05-10T23:59:12.912Z,74.30
